^^

Metar (rayon 200 km actualisée toutes les 30 minutes)






LFBU - Brie/Champniers, France
Distance de la station: SSE 07km
Mise à jour: 01/09/2014 19:00
Pas à jour
partiellement nuageux
partiellement nuageux
 Wind from NNE
Vent: NNE 17 km/h
Température: 23°C
Point de Rosée: 11°C
Humidité: 47%
Baromètre: 1019 hPa
Nuages: partiellement nuageux
Visibilité: 10 km
2014/09/01 17:00 LFBU 011700Z AUTO 02009KT 9999 NSC 23/11 Q1019
LFBG - Cognac/Chateaubernard, France
Distance de la station: OSO 35km
Mise à jour: 02/09/2014 03:30
partiellement nuageux
partiellement nuageux
 Wind from calm
Vent: Vent calme
Température: 13°C
Point de Rosée: 10°C
Humidité: 82%
Baromètre: 1019 hPa
Nuages: partiellement nuageux
Visibilité: 10 km
2014/09/02 01:30 LFBG 020130Z AUTO 00000KT 9999 NSC 13/10 Q1019
 
LFBL - Limoges/Bellegarde, France
Distance de la station: E 82km
Mise à jour: 02/09/2014 03:30
partiellement nuageux
partiellement nuageux
 Wind from NE
Vent: NE 13 km/h
Température: 14°C
Point de Rosée: 8°C
Humidité: 67%
Baromètre: 1020 hPa
Nuages: partiellement nuageux
Visibilité: 10 km
2014/09/02 01:30 LFBL 020130Z AUTO 05007KT 9999 NSC 14/08 Q1020
LFBI - Poitiers/France
Distance de la station: N 93km
Mise à jour: 02/09/2014 03:30
partiellement nuageux
partiellement nuageux
 Wind from N
Vent: N 4 km/h
Température: 12°C
Point de Rosée: 10°C
Humidité: 88%
Baromètre: 1020 hPa
Nuages: partiellement nuageux
Visibilité: 10 km
2014/09/02 01:30 LFBI 020130Z AUTO 35002KT 9999 NSC 12/10 Q1020
 
LFBH - La Rochelle/France
Distance de la station: ONO 106km
Mise à jour: 02/09/2014 03:30
partiellement nuageux
partiellement nuageux
 Wind from E
Vent: E 9 km/h
Température: 15°C
Point de Rosée: 12°C
Humidité: 82%
Baromètre: 1019 hPa
Nuages: partiellement nuageux
Visibilité: 10 km
2014/09/02 01:30 LFBH 020130Z AUTO 08005KT 9999 NSC 15/12 Q1019
LFBE - Bergerac/France
Distance de la station: SSE 107km
Mise à jour: 02/09/2014 03:30
partiellement nuageux
partiellement nuageux
 Wind from variable
Vent: variable 2 km/h
Température: 10°C
Point de Rosée: 10°C
Humidité: 100%
Baromètre: 1018 hPa
Nuages: partiellement nuageux
Visibilité: 9 km
2014/09/02 01:30 LFBE 020130Z AUTO VRB01KT 9000 NSC 10/10 Q1018
 
LFBD - Bordeaux/France
Distance de la station: SSO 121km
Mise à jour: 02/09/2014 03:30
partiellement nuageux
partiellement nuageux
 Wind from NE
Vent: NE 9 km/h
Température: 16°C
Point de Rosée: 12°C
Humidité: 77%
Baromètre: 1018 hPa
Nuages: partiellement nuageux
Visibilité: 10 km
2014/09/02 01:30 LFBD 020130Z AUTO 05005KT 9999 NSC 16/12 Q1018
LFRI - La Roche-sur-Yon/France
Distance de la station: NO 156km
Mise à jour: 02/09/2014 03:30
partiellement nuageux
partiellement nuageux
 Wind from NE
Vent: NE 9 km/h
Température: 13°C
Point de Rosée: 12°C
Humidité: 94%
Baromètre: 1020 hPa
Nuages: partiellement nuageux
Visibilité: 10 km
2014/09/02 01:30 LFRI 020130Z AUTO 05005KT 9999 NSC 13/12 Q1020
 
LFBC - Cazaux/France
Distance de la station: SO 167km
Mise à jour: 02/09/2014 03:30
partiellement nuageux
partiellement nuageux
 Wind from NNE
Vent: NNE 7 km/h
Température: 15°C
Point de Rosée: 12°C
Humidité: 82%
Baromètre: 1018 hPa
Nuages: partiellement nuageux
Visibilité: 10 km
2014/09/02 01:30 LFBC 020130Z AUTO 02004KT 9999 NSC 15/12 Q1018
LFLX - Chateauroux/France
Distance de la station: NE 174km
Mise à jour: 02/09/2014 03:30
partiellement nuageux
partiellement nuageux
 Wind from E
Vent: E 2 km/h
Température: 11°C
Point de Rosée: 8°C
Humidité: 82%
Baromètre: 1020 hPa
Nuages: partiellement nuageux
Visibilité: 10 km
2014/09/02 01:30 LFLX 020130Z AUTO 08001KT 9999 NSC 11/08 Q1020
 
LFBA - Agen/France
Distance de la station: SSE 179km
Mise à jour: 02/09/2014 03:30
partiellement nuageux
partiellement nuageux
 Wind from calm
Vent: Vent calme
Température: 11°C
Point de Rosée: 11°C
Humidité: 100%
Baromètre: 1018 hPa
Nuages: partiellement nuageux
Visibilité: 10 km
2014/09/02 01:30 LFBA 020130Z AUTO 00000KT 9999 NSC 11/11 Q1018